Terminal Aerodrome Forecast
Issued by NWS

Home | Current Version | Previous Version | Text Only | Print | Product List | Glossary On
Versions: 1 2 3 4 5 6 7 8 9 10 11 12 13
000
FTUS41 KBTV 290530
TAFMSS
TAF
KMSS 290530Z 2906/3006 VRB03KT P6SM SKC
     FM291200 09005KT P6SM BKN150 BKN200
     FM291800 09009KT P6SM OVC090
     FM292100 09010KT P6SM OVC050
     FM300000 10012G20KT 6SM -SN OVC035
     FM300200 10012G20KT 1 1/2SM -SN BR OVC020=

USA.gov is the U.S. government's official web portal to all federal, state and local government web resources and services.